createdAt,value
2023-04-06T00:00:01.133Z,69.74
2023-04-06T00:02:29.457Z,69.77
2023-04-06T00:04:57.750Z,70.32
2023-04-06T00:07:26.287Z,70.27
2023-04-06T00:09:54.455Z,71.10
2023-04-06T00:12:22.820Z,70.84
2023-04-06T00:14:51.082Z,71.25
2023-04-06T00:17:20.773Z,71.29
2023-04-06T00:19:49.066Z,71.46
2023-04-06T00:22:17.224Z,71.43
2023-04-06T00:24:45.624Z,71.39
2023-04-06T00:27:13.803Z,72.29
2023-04-06T00:29:42.033Z,72.56
2023-04-06T00:32:11.450Z,72.70
2023-04-06T00:34:41.233Z,72.24
2023-04-06T00:37:09.529Z,71.80
2023-04-06T00:39:37.815Z,71.59
2023-04-06T00:42:09.983Z,71.89
2023-04-06T00:44:38.463Z,72.47
2023-04-06T00:47:06.788Z,73.31
2023-04-06T00:49:35.120Z,73.17
2023-04-06T00:52:04.778Z,73.62
2023-04-06T00:54:32.996Z,73.34
2023-04-06T00:57:01.526Z,72.74
2023-04-06T00:59:30.081Z,73.27
2023-04-06T01:01:58.383Z,73.51
2023-04-06T01:04:26.827Z,73.51
2023-04-06T01:07:10.968Z,73.10
2023-04-06T01:09:42.357Z,73.54
2023-04-06T01:12:10.875Z,73.41
2023-04-06T01:14:39.049Z,74.41
2023-04-06T01:17:07.509Z,74.19
2023-04-06T01:19:36.697Z,74.27
2023-04-06T01:22:05.487Z,74.11
2023-04-06T01:24:35.391Z,74.23
2023-04-06T01:27:03.620Z,74.71
2023-04-06T01:29:31.871Z,74.74
2023-04-06T01:32:00.380Z,74.31
2023-04-06T01:34:28.608Z,74.71
2023-04-06T01:36:56.999Z,74.82
2023-04-06T01:39:25.319Z,74.62
2023-04-06T01:41:54.894Z,75.05
2023-04-06T01:44:23.417Z,74.54
2023-04-06T01:46:51.723Z,74.11
2023-04-06T01:49:20.074Z,73.80
2023-04-06T01:51:48.281Z,74.48
2023-04-06T01:54:16.560Z,74.24
2023-04-06T01:56:44.904Z,74.56
2023-04-06T01:59:14.522Z,75.13
2023-04-06T02:01:42.922Z,75.94
2023-04-06T02:04:11.333Z,75.64
2023-04-06T02:06:39.720Z,75.82
2023-04-06T02:09:08.214Z,75.50
2023-04-06T02:11:36.623Z,76.03
2023-04-06T02:14:05.708Z,75.96
2023-04-06T02:16:35.440Z,76.60
2023-04-06T02:19:03.746Z,76.80
2023-04-06T02:21:49.864Z,76.83
2023-04-06T02:24:18.135Z,76.70
2023-04-06T02:26:46.334Z,76.76
2023-04-06T02:29:14.845Z,76.28
2023-04-06T02:31:44.523Z,76.48
2023-04-06T02:34:18.342Z,77.20
2023-04-06T02:36:46.826Z,77.67
2023-04-06T02:39:15.466Z,77.98
2023-04-06T02:41:43.643Z,77.93
2023-04-06T02:44:11.959Z,77.53
2023-04-06T02:46:40.349Z,77.49
2023-04-06T02:49:10.218Z,77.64
2023-04-06T02:51:38.575Z,77.83
2023-04-06T02:54:06.940Z,78.10
2023-04-06T02:56:35.449Z,78.65
2023-04-06T02:59:03.766Z,78.25
2023-04-06T03:01:32.460Z,78.43
2023-04-06T03:04:00.734Z,78.85
2023-04-06T03:06:31.324Z,78.54
2023-04-06T03:08:59.584Z,78.84
2023-04-06T03:11:28.480Z,78.50
2023-04-06T03:13:56.799Z,78.18
2023-04-06T03:16:25.183Z,77.45
2023-04-06T03:18:53.630Z,77.29
2023-04-06T03:21:21.890Z,77.86
2023-04-06T03:23:52.065Z,78.08
2023-04-06T03:26:20.502Z,78.28
2023-04-06T03:28:48.796Z,78.31
2023-04-06T03:31:17.081Z,78.59
2023-04-06T03:33:45.377Z,78.63
2023-04-06T03:36:25.225Z,78.55
2023-04-06T03:38:55.450Z,78.51
2023-04-06T03:41:23.670Z,77.65
2023-04-06T03:43:52.125Z,77.57
2023-04-06T03:46:20.346Z,77.73
2023-04-06T03:48:50.560Z,78.17
2023-04-06T03:51:18.913Z,78.36
2023-04-06T03:53:47.252Z,78.84
2023-04-06T03:56:16.782Z,78.47
2023-04-06T03:58:46.206Z,78.73
2023-04-06T04:01:14.415Z,79.32
2023-04-06T04:03:43.003Z,79.37
2023-04-06T04:06:11.350Z,79.73
2023-04-06T04:08:39.704Z,79.62
2023-04-06T04:11:07.924Z,79.69
2023-04-06T04:13:37.570Z,80.06
2023-04-06T04:16:06.485Z,80.22
2023-04-06T04:18:34.849Z,80.28
2023-04-06T04:21:03.185Z,80.46
2023-04-06T04:23:31.583Z,79.67
2023-04-06T04:25:59.765Z,80.44
2023-04-06T04:28:31.944Z,80.69
2023-04-06T04:31:01.616Z,80.37
2023-04-06T04:33:29.888Z,80.23
2023-04-06T04:35:58.394Z,79.94
2023-04-06T04:38:26.829Z,80.05
2023-04-06T04:40:55.412Z,80.95
2023-04-06T04:43:23.644Z,81.17
2023-04-06T04:45:51.910Z,81.23
2023-04-06T04:48:21.616Z,80.70
2023-04-06T04:50:49.876Z,80.75
2023-04-06T04:53:18.147Z,80.81
2023-04-06T04:55:46.470Z,80.79
2023-04-06T04:58:17.438Z,81.20
2023-04-06T05:00:45.899Z,80.92
2023-04-06T05:03:19.090Z,81.14
2023-04-06T05:05:48.855Z,81.07
2023-04-06T05:08:17.634Z,81.20
2023-04-06T05:10:46.362Z,80.69
2023-04-06T05:13:14.663Z,80.34
2023-04-06T05:15:43.412Z,80.01
2023-04-06T05:18:12.265Z,79.61
2023-04-06T05:20:41.423Z,79.71
2023-04-06T05:23:11.324Z,79.36
2023-04-06T05:25:39.591Z,79.25
2023-04-06T05:28:07.835Z,79.25
2023-04-06T05:30:37.218Z,78.59
2023-04-06T05:33:05.520Z,78.36
2023-04-06T05:35:33.813Z,78.67
2023-04-06T05:38:02.479Z,78.60
2023-04-06T05:40:32.021Z,78.55
2023-04-06T05:43:00.603Z,78.26
2023-04-06T05:45:29.651Z,77.23
2023-04-06T05:47:57.992Z,76.79
2023-04-06T05:50:26.312Z,77.17
2023-04-06T05:52:54.544Z,76.40
2023-04-06T05:55:22.862Z,75.83
2023-04-06T05:57:52.451Z,75.04
2023-04-06T06:00:21.131Z,74.24
2023-04-06T06:02:49.720Z,73.94
2023-04-06T06:05:18.142Z,73.94
2023-04-06T06:07:47.647Z,73.46
2023-04-06T06:10:16.046Z,72.75
2023-04-06T06:12:44.668Z,71.42
2023-04-06T06:15:14.611Z,69.92
2023-04-06T06:17:42.844Z,67.57
2023-04-06T06:20:11.501Z,65.90
2023-04-06T06:22:41.071Z,65.89
2023-04-06T06:25:09.790Z,63.54
2023-04-06T06:27:38.135Z,63.76
2023-04-06T06:30:07.034Z,62.93
2023-04-06T06:32:36.713Z,62.65
2023-04-06T06:35:05.120Z,61.95
2023-04-06T06:37:33.536Z,60.22
2023-04-06T06:40:01.813Z,60.07
2023-04-06T06:42:30.142Z,57.88
2023-04-06T06:44:58.532Z,58.01
2023-04-06T06:47:27.155Z,57.03
2023-04-06T06:49:56.831Z,55.94
2023-04-06T06:52:25.180Z,55.53
2023-04-06T06:54:54.943Z,55.03
2023-04-06T06:57:24.882Z,53.38
2023-04-06T06:59:53.074Z,52.96
2023-04-06T07:02:21.342Z,51.91
2023-04-06T07:04:49.908Z,52.61
2023-04-06T07:07:19.617Z,51.92
2023-04-06T07:09:47.977Z,51.95
2023-04-06T07:12:17.538Z,51.21
2023-04-06T07:14:45.934Z,50.18
2023-04-06T07:17:14.186Z,50.02
2023-04-06T07:19:42.757Z,49.02
2023-04-06T07:22:11.120Z,48.12
2023-04-06T07:24:40.744Z,44.21
2023-04-06T07:27:09.217Z,40.63
2023-04-06T07:29:37.573Z,38.39
2023-04-06T07:32:06.152Z,36.97
2023-04-06T07:34:34.691Z,34.49
2023-04-06T07:37:04.212Z,32.34
2023-04-06T07:39:32.611Z,30.71
2023-04-06T07:42:02.544Z,28.95
2023-04-06T07:44:31.051Z,27.75
2023-04-06T07:47:02.049Z,26.33
2023-04-06T07:49:30.320Z,25.11
2023-04-06T07:51:58.540Z,24.77
2023-04-06T07:54:27.053Z,23.15
2023-04-06T07:56:55.439Z,23.27
2023-04-06T07:59:25.467Z,22.98
2023-04-06T08:01:53.787Z,22.47
2023-04-06T08:04:22.239Z,21.65
2023-04-06T08:06:50.905Z,21.26
2023-04-06T08:09:19.408Z,21.42
2023-04-06T08:11:49.582Z,21.84
2023-04-06T08:14:17.906Z,23.12
2023-04-06T08:16:47.554Z,22.69
2023-04-06T08:19:19.865Z,23.22
2023-04-06T08:21:48.150Z,21.77
2023-04-06T08:24:16.574Z,21.31
2023-04-06T08:26:45.017Z,20.75
2023-04-06T08:29:13.278Z,20.76
2023-04-06T08:31:41.870Z,21.03
2023-04-06T08:34:13.917Z,20.70
2023-04-06T08:36:42.899Z,19.05
2023-04-06T08:39:11.148Z,18.11
2023-04-06T08:41:39.706Z,17.51
2023-04-06T08:44:08.015Z,16.44
2023-04-06T08:46:36.752Z,16.47
2023-04-06T08:49:07.667Z,18.43
2023-04-06T08:51:39.702Z,19.34
2023-04-06T08:54:08.453Z,20.50
2023-04-06T08:56:39.739Z,20.79
2023-04-06T08:59:08.406Z,22.47
2023-04-06T09:01:42.105Z,23.96
2023-04-06T09:04:12.306Z,23.84
2023-04-06T09:06:43.285Z,24.45
2023-04-06T09:09:12.548Z,25.27
2023-04-06T09:11:47.119Z,25.59
2023-04-06T09:14:16.018Z,24.78
2023-04-06T09:16:46.118Z,24.77
2023-04-06T09:19:14.649Z,24.23
2023-04-06T09:21:44.531Z,24.31
2023-04-06T09:24:12.940Z,23.59
2023-04-06T09:26:48.549Z,25.71
2023-04-06T09:29:24.486Z,26.96
2023-04-06T09:31:52.992Z,26.96
2023-04-06T09:34:24.906Z,27.28
2023-04-06T09:36:54.676Z,27.26
2023-04-06T09:39:24.045Z,26.66
2023-04-06T09:41:52.649Z,28.49
2023-04-06T09:44:21.241Z,27.60
2023-04-06T09:46:58.807Z,26.98
2023-04-06T09:49:29.340Z,25.55
2023-04-06T09:52:00.754Z,24.70
2023-04-06T09:54:30.833Z,23.72
2023-04-06T09:57:03.129Z,22.85
2023-04-06T09:59:39.109Z,20.26
2023-04-06T10:02:07.928Z,20.13
2023-04-06T10:04:42.247Z,20.48
2023-04-06T10:07:14.050Z,20.41
2023-04-06T10:09:42.894Z,20.33
2023-04-06T10:12:11.385Z,21.43
2023-04-06T10:14:40.266Z,20.38
2023-04-06T10:17:08.616Z,20.61
2023-04-06T10:19:41.466Z,21.05
2023-04-06T10:22:10.806Z,21.61
2023-04-06T10:24:40.433Z,21.76
2023-04-06T10:27:12.315Z,23.53
2023-04-06T10:29:45.118Z,23.00
2023-04-06T10:32:14.055Z,22.17
2023-04-06T10:34:42.354Z,21.82
2023-04-06T10:37:54.093Z,22.82
2023-04-06T10:40:26.988Z,23.07
2023-04-06T10:42:56.248Z,23.19
2023-04-06T10:45:35.566Z,23.81
2023-04-06T10:48:14.263Z,23.91
2023-04-06T10:50:43.382Z,24.47
2023-04-06T10:53:11.779Z,25.79
2023-04-06T10:55:42.757Z,24.17
2023-04-06T10:58:11.084Z,23.84
2023-04-06T11:03:15.692Z,23.99
2023-04-06T11:05:47.698Z,22.25
2023-04-06T11:08:26.944Z,20.70
2023-04-06T11:11:07.585Z,20.62
2023-04-06T11:13:40.691Z,22.84
2023-04-06T11:16:13.836Z,22.69
2023-04-06T11:18:48.991Z,21.97
2023-04-06T11:21:17.601Z,21.92
2023-04-06T11:23:45.908Z,20.22
2023-04-06T11:26:15.850Z,20.09
2023-04-06T11:28:44.408Z,19.83
2023-04-06T11:31:12.932Z,20.12
2023-04-06T11:36:45.548Z,23.01
2023-04-06T11:39:14.097Z,22.40
2023-04-06T11:41:44.380Z,24.44
2023-04-06T11:44:12.793Z,23.96
2023-04-06T11:46:41.246Z,24.09
2023-04-06T11:49:17.238Z,24.11
2023-04-06T11:51:45.722Z,25.04
2023-04-06T11:54:13.999Z,24.83
2023-04-06T11:56:42.304Z,25.90
2023-04-06T11:59:14.434Z,26.87
2023-04-06T12:01:47.236Z,27.21
2023-04-06T12:04:15.655Z,26.97
2023-04-06T12:06:44.319Z,26.61
2023-04-06T12:09:12.553Z,28.14
2023-04-06T12:11:41.791Z,28.83
2023-04-06T12:14:10.506Z,28.22
2023-04-06T12:16:40.514Z,27.56
2023-04-06T12:19:09.122Z,26.32
2023-04-06T12:21:41.437Z,25.05
2023-04-06T12:24:10.664Z,26.06
2023-04-06T12:26:39.102Z,26.01
2023-04-06T12:29:08.889Z,25.94
2023-04-06T12:31:39.375Z,26.70
2023-04-06T12:34:09.230Z,25.88
2023-04-06T12:36:38.894Z,27.62
2023-04-06T12:39:07.262Z,27.06
2023-04-06T12:41:35.672Z,26.99
2023-04-06T12:44:04.104Z,25.70
2023-04-06T12:46:32.701Z,25.01
2023-04-06T12:49:02.006Z,24.72
2023-04-06T12:51:32.196Z,24.60
2023-04-06T12:54:00.631Z,24.09
2023-04-06T12:56:28.911Z,23.57
2023-04-06T12:58:57.480Z,22.71
2023-04-06T13:01:26.675Z,22.41
2023-04-06T13:03:55.065Z,23.06
2023-04-06T13:06:23.309Z,24.83
2023-04-06T13:08:52.997Z,26.05
2023-04-06T13:11:25.071Z,27.63
2023-04-06T13:13:54.652Z,28.07
2023-04-06T13:16:23.188Z,29.01
2023-04-06T13:18:52.000Z,29.02
2023-04-06T13:21:21.668Z,30.15
2023-04-06T13:23:49.956Z,31.55
2023-04-06T13:26:19.956Z,31.75
2023-04-06T13:28:48.782Z,32.45
2023-04-06T13:31:17.002Z,33.16
2023-04-06T13:33:45.314Z,34.46
2023-04-06T13:36:14.696Z,33.92
2023-04-06T13:38:45.233Z,32.79
2023-04-06T13:41:21.778Z,32.08
2023-04-06T13:43:50.738Z,33.85
2023-04-06T13:46:19.295Z,35.44
2023-04-06T13:48:48.019Z,34.58
2023-04-06T13:51:16.476Z,34.24
2023-04-06T13:53:46.846Z,33.87
2023-04-06T13:56:16.914Z,33.90
2023-04-06T13:58:46.913Z,33.80
2023-04-06T14:01:40.664Z,35.64
2023-04-06T14:04:09.175Z,36.70
2023-04-06T14:06:38.490Z,35.99
2023-04-06T14:09:06.752Z,36.97
2023-04-06T14:11:36.172Z,37.63
2023-04-06T14:14:05.888Z,37.27
2023-04-06T14:16:34.363Z,37.77
2023-04-06T14:19:02.650Z,37.82
2023-04-06T14:21:30.950Z,38.51
2023-04-06T14:23:59.872Z,39.05
2023-04-06T14:26:28.612Z,39.07
2023-04-06T14:28:56.990Z,39.90
2023-04-06T14:31:27.339Z,40.76
2023-04-06T14:33:55.753Z,42.26
2023-04-06T14:36:24.691Z,43.75
2023-04-06T14:38:53.265Z,45.35
2023-04-06T14:41:24.162Z,44.88
2023-04-06T14:43:53.555Z,44.78
2023-04-06T14:46:22.429Z,45.30
2023-04-06T14:48:52.388Z,44.61
2023-04-06T14:51:20.743Z,44.77
2023-04-06T14:53:49.215Z,45.40
2023-04-06T14:56:21.415Z,45.62
2023-04-06T14:58:49.728Z,46.18
2023-04-06T15:01:18.005Z,46.66
2023-04-06T15:03:46.632Z,46.95
2023-04-06T15:06:17.178Z,46.45
2023-04-06T15:08:45.615Z,47.51
2023-04-06T15:11:14.555Z,47.39
2023-04-06T15:13:42.979Z,47.50
2023-04-06T15:16:11.304Z,48.04
2023-04-06T15:18:39.692Z,48.21
2023-04-06T15:21:08.166Z,48.02
2023-04-06T15:23:37.809Z,48.01
2023-04-06T15:26:06.088Z,48.50
2023-04-06T15:28:34.378Z,49.49
2023-04-06T15:31:07.133Z,50.29
2023-04-06T15:33:35.655Z,51.06
2023-04-06T15:36:05.616Z,52.18
2023-04-06T15:38:34.682Z,53.10
2023-04-06T15:41:05.234Z,54.48
2023-04-06T15:43:33.566Z,54.67
2023-04-06T15:46:03.341Z,54.59
2023-04-06T15:48:33.037Z,54.75
2023-04-06T15:51:01.505Z,54.50
2023-04-06T15:53:29.844Z,54.47
2023-04-06T15:55:59.855Z,54.79
2023-04-06T15:58:31.839Z,55.90
2023-04-06T16:01:00.106Z,57.05
2023-04-06T16:03:28.705Z,57.44
2023-04-06T16:06:08.187Z,59.13
2023-04-06T16:08:37.583Z,59.07
2023-04-06T16:11:05.986Z,57.62
2023-04-06T16:13:35.931Z,57.69
2023-04-06T16:16:05.892Z,58.10
2023-04-06T16:18:36.193Z,57.66
2023-04-06T16:21:05.432Z,57.84
2023-04-06T16:23:34.175Z,58.41
2023-04-06T16:26:02.373Z,59.53
2023-04-06T16:28:31.404Z,60.83
2023-04-06T16:31:01.500Z,61.82
2023-04-06T16:33:29.960Z,62.82
2023-04-06T16:35:58.172Z,64.65
2023-04-06T16:38:31.665Z,67.41
2023-04-06T16:41:03.126Z,68.51
2023-04-06T16:43:32.222Z,71.63
2023-04-06T16:46:01.893Z,74.62
2023-04-06T16:48:30.384Z,74.73
2023-04-06T16:50:58.644Z,77.82
2023-04-06T16:53:26.908Z,78.44
2023-04-06T16:55:55.317Z,80.72
2023-04-06T16:58:23.695Z,82.17
2023-04-06T17:00:51.955Z,83.33
2023-04-06T17:03:21.735Z,84.43
2023-04-06T17:05:50.042Z,86.43
2023-04-06T17:08:18.687Z,85.92
2023-04-06T17:10:59.239Z,87.81
2023-04-06T17:13:31.283Z,87.54
2023-04-06T17:16:00.167Z,88.30
2023-04-06T17:18:30.668Z,89.60
2023-04-06T17:20:59.291Z,91.45
2023-04-06T17:23:27.643Z,92.15
2023-04-06T17:25:57.842Z,93.08
2023-04-06T17:28:30.125Z,93.12
2023-04-06T17:30:58.636Z,94.42
2023-04-06T17:33:27.305Z,94.78
2023-04-06T17:35:56.946Z,95.33
2023-04-06T17:38:25.325Z,97.13
2023-04-06T17:40:53.750Z,97.00
2023-04-06T17:43:22.015Z,97.55
2023-04-06T17:45:50.947Z,98.67
2023-04-06T17:48:19.399Z,98.46
2023-04-06T17:50:47.711Z,98.11
2023-04-06T17:53:20.255Z,97.85
2023-04-06T17:55:48.609Z,98.82
2023-04-06T17:58:18.092Z,99.56
2023-04-06T18:00:46.327Z,99.34
2023-04-06T18:03:17.036Z,98.62
2023-04-06T18:05:45.555Z,98.99
2023-04-06T18:08:14.811Z,98.91
2023-04-06T18:10:47.567Z,99.73
2023-04-06T18:13:16.159Z,100.00
2023-04-06T18:15:44.452Z,100.00
2023-04-06T18:18:12.768Z,100.00
2023-04-06T18:20:41.843Z,100.00
2023-04-06T18:23:10.231Z,99.14
2023-04-06T18:25:39.191Z,98.52
2023-04-06T18:28:10.068Z,99.52
2023-04-06T18:30:38.593Z,100.00
2023-04-06T18:33:07.918Z,100.00
2023-04-06T18:35:36.171Z,100.00
2023-04-06T18:38:11.492Z,99.94
2023-04-06T18:40:40.792Z,100.00
2023-04-06T18:43:13.062Z,100.00
2023-04-06T18:45:43.288Z,100.00
2023-04-06T18:48:11.626Z,100.00
2023-04-06T18:50:40.211Z,100.00
2023-04-06T18:53:08.560Z,100.00
2023-04-06T18:55:38.230Z,100.00
2023-04-06T18:58:06.633Z,100.00
2023-04-06T19:00:36.282Z,100.00
2023-04-06T19:03:04.615Z,100.00
2023-04-06T19:05:32.912Z,100.00
2023-04-06T19:08:01.167Z,100.00
2023-04-06T19:10:30.348Z,100.00
2023-04-06T19:13:04.855Z,100.00
2023-04-06T19:15:33.654Z,100.00
2023-04-06T19:18:03.395Z,100.00
2023-04-06T19:20:34.284Z,100.00
2023-04-06T19:23:03.733Z,100.00
2023-04-06T19:25:32.784Z,100.00
2023-04-06T19:28:01.543Z,100.00
2023-04-06T19:30:30.443Z,100.00
2023-04-06T19:33:00.675Z,100.00
2023-04-06T19:35:32.770Z,100.00
2023-04-06T19:38:01.639Z,100.00
2023-04-06T19:40:30.384Z,100.00
2023-04-06T19:42:59.650Z,100.00
2023-04-06T19:45:29.787Z,100.00
2023-04-06T19:47:58.169Z,100.00
2023-04-06T19:50:26.557Z,100.00
2023-04-06T19:52:56.220Z,100.00
2023-04-06T19:55:24.585Z,100.00
2023-04-06T19:57:52.820Z,100.00
2023-04-06T20:00:22.908Z,100.00
2023-04-06T20:02:51.643Z,100.00
2023-04-06T20:05:23.088Z,100.00
2023-04-06T20:07:51.720Z,100.00
2023-04-06T20:10:21.377Z,100.00
2023-04-06T20:12:50.495Z,100.00
2023-04-06T20:15:18.980Z,100.00
2023-04-06T20:17:49.216Z,100.00
2023-04-06T20:20:17.605Z,100.00
2023-04-06T20:22:46.142Z,100.00
2023-04-06T20:25:14.510Z,100.00
2023-04-06T20:27:45.260Z,100.00
2023-04-06T20:30:14.157Z,100.00
2023-04-06T20:32:42.853Z,100.00
2023-04-06T20:35:11.276Z,100.00
2023-04-06T20:37:39.646Z,100.00
2023-04-06T20:40:08.546Z,100.00
2023-04-06T20:42:40.152Z,100.00
2023-04-06T20:45:10.901Z,100.00
2023-04-06T20:47:39.608Z,100.00
2023-04-06T20:50:08.544Z,100.00
2023-04-06T20:52:38.077Z,100.00
2023-04-06T20:55:07.196Z,100.00
2023-04-06T20:57:35.888Z,100.00
2023-04-06T21:00:05.359Z,100.00
2023-04-06T21:02:35.369Z,100.00
2023-04-06T21:05:04.010Z,100.00
2023-04-06T21:07:32.436Z,100.00
2023-04-06T21:10:01.045Z,100.00
2023-04-06T21:12:29.404Z,100.00
2023-04-06T21:14:57.941Z,100.00
2023-04-06T21:17:26.698Z,100.00
2023-04-06T21:19:56.396Z,100.00
2023-04-06T21:22:24.829Z,100.00
2023-04-06T21:24:53.582Z,100.00
2023-04-06T21:27:24.847Z,100.00
2023-04-06T21:29:53.240Z,100.00
2023-04-06T21:32:21.618Z,100.00
2023-04-06T21:34:49.882Z,100.00
2023-04-06T21:37:19.866Z,100.00
2023-04-06T21:39:48.435Z,100.00
2023-04-06T21:42:16.641Z,100.00
2023-04-06T21:44:46.544Z,100.00
2023-04-06T21:47:14.785Z,100.00
2023-04-06T21:49:43.016Z,100.00
2023-04-06T21:52:11.365Z,100.00
2023-04-06T21:54:40.938Z,100.00
2023-04-06T21:57:09.160Z,100.00
2023-04-06T21:59:37.353Z,100.00
2023-04-06T22:02:05.983Z,100.00
2023-04-06T22:04:34.533Z,100.00
2023-04-06T22:07:02.925Z,100.00
2023-04-06T22:09:31.168Z,100.00
2023-04-06T22:12:00.799Z,100.00
2023-04-06T22:14:29.534Z,100.00
2023-04-06T22:17:00.474Z,100.00
2023-04-06T22:19:28.691Z,100.00
2023-04-06T22:21:57.332Z,100.00
2023-04-06T22:24:25.655Z,100.00
2023-04-06T22:26:54.039Z,100.00
2023-04-06T22:29:23.671Z,100.00
2023-04-06T22:31:51.977Z,100.00
2023-04-06T22:34:20.315Z,100.00
2023-04-06T22:36:48.596Z,100.00
2023-04-06T22:39:16.843Z,100.00
2023-04-06T22:41:45.693Z,100.00
2023-04-06T22:44:13.945Z,100.00
2023-04-06T22:46:43.646Z,100.00
2023-04-06T22:49:26.091Z,100.00
2023-04-06T22:51:54.472Z,100.00
2023-04-06T22:54:22.716Z,100.00
2023-04-06T22:56:51.031Z,100.00
2023-04-06T22:59:19.284Z,100.00
2023-04-06T23:01:48.908Z,100.00
2023-04-06T23:04:17.419Z,100.00
2023-04-06T23:06:46.047Z,100.00
2023-04-06T23:09:14.334Z,100.00
2023-04-06T23:11:43.175Z,100.00
2023-04-06T23:14:11.410Z,100.00
2023-04-06T23:16:39.714Z,100.00
2023-04-06T23:19:09.360Z,100.00
2023-04-06T23:21:37.607Z,100.00
2023-04-06T23:24:06.322Z,100.00
2023-04-06T23:26:34.554Z,100.00
2023-04-06T23:29:02.879Z,100.00
2023-04-06T23:31:31.122Z,100.00
2023-04-06T23:33:59.317Z,100.00
2023-04-06T23:36:28.994Z,100.00
2023-04-06T23:38:57.384Z,100.00
2023-04-06T23:41:26.254Z,100.00
2023-04-06T23:43:55.861Z,100.00
2023-04-06T23:46:24.339Z,100.00
2023-04-06T23:48:52.645Z,100.00
2023-04-06T23:51:21.138Z,100.00
2023-04-06T23:53:50.833Z,100.00
2023-04-06T23:56:19.030Z,100.00
2023-04-06T23:58:47.352Z,100.00
